createdAt,value
2022-11-25T00:00:50.626Z,2.2
2022-11-25T00:02:51.213Z,2.2
2022-11-25T00:04:50.737Z,2.2
2022-11-25T00:06:50.914Z,2.1
2022-11-25T00:08:50.505Z,2.1
2022-11-25T00:10:50.130Z,2.1
2022-11-25T00:12:50.727Z,2.1
2022-11-25T00:14:50.261Z,2.1
2022-11-25T00:16:50.828Z,2.1
2022-11-25T00:18:50.572Z,2.1
2022-11-25T00:20:50.383Z,2.1
2022-11-25T00:22:49.960Z,2.1
2022-11-25T00:24:50.392Z,2.1
2022-11-25T00:26:50.442Z,2.0
2022-11-25T00:28:50.038Z,2.0
2022-11-25T00:30:50.737Z,2.0
2022-11-25T00:32:50.282Z,2.0
2022-11-25T00:34:50.512Z,2.0
2022-11-25T00:36:50.388Z,2.0
2022-11-25T00:38:50.312Z,2.0
2022-11-25T00:40:50.033Z,2.0
2022-11-25T00:42:50.701Z,2.0
2022-11-25T00:44:50.177Z,2.0
2022-11-25T00:46:49.952Z,1.9
2022-11-25T00:48:50.558Z,1.9
2022-11-25T00:50:50.190Z,1.9
2022-11-25T00:52:50.029Z,1.9
2022-11-25T00:54:50.771Z,1.9
2022-11-25T00:56:51.015Z,1.9
2022-11-25T00:58:50.844Z,1.9
2022-11-25T01:00:50.710Z,1.9
2022-11-25T01:02:50.483Z,1.8
2022-11-25T01:04:51.009Z,1.8
2022-11-25T01:06:50.075Z,1.8
2022-11-25T01:08:50.671Z,1.8
2022-11-25T01:10:50.361Z,1.8
2022-11-25T01:12:49.970Z,1.8
2022-11-25T01:14:50.797Z,1.8
2022-11-25T01:16:50.147Z,1.7
2022-11-25T01:18:50.077Z,1.7
2022-11-25T01:20:50.584Z,1.8
2022-11-25T01:22:50.429Z,1.8
2022-11-25T01:24:50.686Z,1.7
2022-11-25T01:26:50.687Z,1.7
2022-11-25T01:28:50.565Z,1.7
2022-11-25T01:30:50.101Z,1.7
2022-11-25T01:32:50.055Z,1.6
2022-11-25T01:34:50.179Z,1.6
2022-11-25T01:36:50.149Z,1.6
2022-11-25T01:38:50.028Z,1.6
2022-11-25T01:40:50.764Z,1.5
2022-11-25T01:42:50.396Z,1.5
2022-11-25T01:44:50.057Z,1.5
2022-11-25T01:46:50.051Z,1.5
2022-11-25T01:48:50.134Z,1.5
2022-11-25T01:50:50.607Z,1.5
2022-11-25T01:52:50.572Z,1.4
2022-11-25T01:54:50.173Z,1.4
2022-11-25T01:56:50.074Z,1.4
2022-11-25T01:58:50.757Z,1.4
2022-11-25T02:00:50.717Z,1.4
2022-11-25T02:02:50.647Z,1.4
2022-11-25T02:04:49.928Z,1.4
2022-11-25T02:06:50.752Z,1.4
2022-11-25T02:08:50.370Z,1.4
2022-11-25T02:10:49.968Z,1.4
2022-11-25T02:12:50.582Z,1.4
2022-11-25T02:14:50.197Z,1.4
2022-11-25T02:16:50.536Z,1.4
2022-11-25T02:18:50.460Z,1.4
2022-11-25T02:20:50.064Z,1.4
2022-11-25T02:22:50.855Z,1.4
2022-11-25T02:24:50.470Z,1.4
2022-11-25T02:26:50.489Z,1.4
2022-11-25T02:28:50.115Z,1.4
2022-11-25T02:30:50.664Z,1.4
2022-11-25T02:32:50.360Z,1.4
2022-11-25T02:34:50.571Z,1.3
2022-11-25T02:36:50.549Z,1.3
2022-11-25T02:38:50.195Z,1.3
2022-11-25T02:40:50.008Z,1.3
2022-11-25T02:42:50.606Z,1.3
2022-11-25T02:44:50.430Z,1.3
2022-11-25T02:46:50.237Z,1.2
2022-11-25T02:49:11.078Z,1.2
2022-11-25T02:50:50.424Z,1.1
2022-11-25T02:52:50.091Z,1.1
2022-11-25T02:54:50.709Z,1.1
2022-11-25T02:56:50.761Z,1.1
2022-11-25T02:58:50.513Z,1.1
2022-11-25T03:00:50.397Z,1.0
2022-11-25T03:02:50.176Z,1.0
2022-11-25T03:04:50.360Z,1.0
2022-11-25T03:06:50.228Z,1.0
2022-11-25T03:08:50.241Z,1.0
2022-11-25T03:10:50.027Z,1.1
2022-11-25T03:12:50.609Z,1.1
2022-11-25T03:14:50.265Z,1.0
2022-11-25T03:16:50.670Z,1.0
2022-11-25T03:18:50.283Z,1.0
2022-11-25T03:20:50.090Z,0.9
2022-11-25T03:22:50.648Z,0.9
2022-11-25T03:24:50.669Z,0.9
2022-11-25T03:26:50.500Z,0.9
2022-11-25T03:28:50.366Z,0.9
2022-11-25T03:30:49.935Z,0.9
2022-11-25T03:32:50.592Z,0.9
2022-11-25T03:34:50.610Z,0.8
2022-11-25T03:36:50.828Z,0.8
2022-11-25T03:38:50.431Z,0.7
2022-11-25T03:40:50.015Z,0.7
2022-11-25T03:42:50.855Z,0.7
2022-11-25T03:44:50.402Z,0.6
2022-11-25T03:46:50.284Z,0.5
2022-11-25T03:48:50.880Z,0.5
2022-11-25T03:50:50.524Z,0.5
2022-11-25T03:52:50.129Z,0.5
2022-11-25T03:54:50.703Z,0.4
2022-11-25T03:56:50.628Z,0.4
2022-11-25T03:58:50.145Z,0.4
2022-11-25T04:00:50.029Z,0.4
2022-11-25T04:02:50.807Z,0.5
2022-11-25T04:04:50.027Z,0.5
2022-11-25T04:06:50.792Z,0.5
2022-11-25T04:08:50.448Z,0.5
2022-11-25T04:10:50.166Z,0.5
2022-11-25T04:12:50.838Z,0.4
2022-11-25T04:14:50.298Z,0.4
2022-11-25T04:16:50.622Z,0.4
2022-11-25T04:18:50.113Z,0.4
2022-11-25T04:20:50.715Z,0.4
2022-11-25T04:22:50.117Z,0.4
2022-11-25T04:24:50.723Z,0.4
2022-11-25T04:26:50.622Z,0.4
2022-11-25T04:28:53.353Z,0.4
2022-11-25T04:30:50.276Z,0.4
2022-11-25T04:32:50.018Z,0.4
2022-11-25T04:34:50.219Z,0.3
2022-11-25T04:36:50.254Z,0.4
2022-11-25T04:38:49.957Z,0.4
2022-11-25T04:40:50.440Z,0.4
2022-11-25T04:42:50.238Z,0.4
2022-11-25T04:45:23.248Z,0.4
2022-11-25T04:46:50.513Z,0.4
2022-11-25T04:48:50.090Z,0.4
2022-11-25T04:50:50.769Z,0.4
2022-11-25T04:52:50.191Z,0.3
2022-11-25T04:54:50.738Z,0.4
2022-11-25T04:56:50.592Z,0.4
2022-11-25T04:58:50.192Z,0.4
2022-11-25T05:00:50.898Z,0.4
2022-11-25T05:02:50.841Z,0.4
2022-11-25T05:04:50.249Z,0.4
2022-11-25T05:06:50.224Z,0.4
2022-11-25T05:08:50.850Z,0.4
2022-11-25T05:10:50.302Z,0.3
2022-11-25T05:12:50.867Z,0.3
2022-11-25T05:14:50.692Z,0.3
2022-11-25T05:16:50.708Z,0.3
2022-11-25T05:18:50.559Z,0.4
2022-11-25T05:20:50.136Z,0.4
2022-11-25T05:22:49.959Z,0.4
2022-11-25T05:24:50.605Z,0.3
2022-11-25T05:26:50.649Z,0.3
2022-11-25T05:28:50.156Z,0.3
2022-11-25T05:30:51.103Z,0.3
2022-11-25T05:32:50.827Z,0.3
2022-11-25T05:34:50.062Z,0.3
2022-11-25T05:36:50.942Z,0.3
2022-11-25T05:38:50.678Z,0.4
2022-11-25T05:40:50.301Z,0.4
2022-11-25T05:42:49.908Z,0.4
2022-11-25T05:44:50.735Z,0.4
2022-11-25T05:46:50.584Z,0.4
2022-11-25T05:48:50.492Z,0.4
2022-11-25T05:50:50.201Z,0.4
2022-11-25T05:52:49.993Z,0.4
2022-11-25T05:54:57.906Z,0.3
2022-11-25T05:56:50.814Z,0.3
2022-11-25T05:58:50.262Z,0.3
2022-11-25T06:00:50.892Z,0.3
2022-11-25T06:02:51.510Z,0.3
2022-11-25T06:04:50.326Z,0.4
2022-11-25T06:06:50.278Z,0.4
2022-11-25T06:08:50.871Z,0.4
2022-11-25T06:10:50.795Z,0.4
2022-11-25T06:12:50.258Z,0.4
2022-11-25T06:14:50.840Z,0.4
2022-11-25T06:16:50.691Z,0.3
2022-11-25T06:18:50.277Z,0.3
2022-11-25T06:20:50.913Z,0.3
2022-11-25T06:22:50.466Z,0.3
2022-11-25T06:25:04.432Z,0.3
2022-11-25T06:26:50.365Z,0.2
2022-11-25T06:28:50.174Z,0.2
2022-11-25T06:30:51.138Z,0.2
2022-11-25T06:32:50.771Z,0.2
2022-11-25T06:34:50.805Z,0.2
2022-11-25T06:36:50.053Z,0.2
2022-11-25T06:38:50.666Z,0.2
2022-11-25T06:40:50.254Z,0.2
2022-11-25T06:42:50.865Z,0.3
2022-11-25T06:44:50.472Z,0.3
2022-11-25T06:46:51.023Z,0.4
2022-11-25T06:48:50.896Z,0.4
2022-11-25T06:50:50.508Z,0.4
2022-11-25T06:52:50.124Z,0.4
2022-11-25T06:54:50.717Z,0.4
2022-11-25T06:56:50.835Z,0.4
2022-11-25T06:58:50.649Z,0.4
2022-11-25T07:00:50.162Z,0.4
2022-11-25T07:02:50.315Z,0.4
2022-11-25T07:04:50.417Z,0.4
2022-11-25T07:06:50.435Z,0.4
2022-11-25T07:08:50.028Z,0.4
2022-11-25T07:10:50.875Z,0.4
2022-11-25T07:12:50.465Z,0.4
2022-11-25T07:14:50.270Z,0.4
2022-11-25T07:16:50.313Z,0.4
2022-11-25T07:18:50.121Z,0.4
2022-11-25T07:20:50.720Z,0.4
2022-11-25T07:22:50.544Z,0.4
2022-11-25T07:24:50.138Z,0.4
2022-11-25T07:26:50.136Z,0.4
2022-11-25T07:28:50.779Z,0.5
2022-11-25T07:31:25.321Z,0.5
2022-11-25T07:32:50.436Z,0.5
2022-11-25T07:34:50.655Z,0.6
2022-11-25T07:36:50.669Z,0.7
2022-11-25T07:38:50.272Z,0.7
2022-11-25T07:40:50.883Z,0.7
2022-11-25T07:42:50.505Z,0.9
2022-11-25T07:44:50.288Z,0.9
2022-11-25T07:46:50.674Z,0.9
2022-11-25T07:48:50.556Z,0.9
2022-11-25T07:50:50.156Z,1.0
2022-11-25T07:52:49.970Z,1.2
2022-11-25T07:54:50.611Z,1.2
2022-11-25T07:56:50.597Z,1.2
2022-11-25T07:58:50.175Z,1.3
2022-11-25T08:00:50.832Z,1.3
2022-11-25T08:02:50.822Z,1.3
2022-11-25T08:04:50.061Z,1.3
2022-11-25T08:06:50.867Z,1.3
2022-11-25T08:08:50.653Z,1.4
2022-11-25T08:10:50.307Z,1.5
2022-11-25T08:12:50.079Z,1.5
2022-11-25T08:14:50.734Z,1.5
2022-11-25T08:16:50.525Z,1.6
2022-11-25T08:18:50.357Z,1.6
2022-11-25T08:20:49.994Z,1.7
2022-11-25T08:22:50.782Z,1.7
2022-11-25T08:24:50.455Z,1.7
2022-11-25T08:26:50.412Z,1.8
2022-11-25T08:28:50.038Z,1.8
2022-11-25T08:30:50.829Z,1.9
2022-11-25T08:32:50.422Z,2.0
2022-11-25T08:34:50.704Z,2.0
2022-11-25T08:36:50.531Z,2.1
2022-11-25T08:38:50.112Z,2.2
2022-11-25T08:40:50.941Z,2.2
2022-11-25T08:42:50.551Z,2.2
2022-11-25T08:44:50.319Z,2.3
2022-11-25T08:46:50.338Z,2.3
2022-11-25T08:48:50.465Z,2.4
2022-11-25T08:50:49.970Z,2.5
2022-11-25T08:52:50.595Z,2.6
2022-11-25T08:54:50.182Z,2.6
2022-11-25T08:56:50.259Z,2.6
2022-11-25T08:58:50.848Z,2.7
2022-11-25T09:00:50.472Z,2.8
2022-11-25T09:02:50.345Z,2.8
2022-11-25T09:04:50.735Z,2.8
2022-11-25T09:06:50.843Z,2.9
2022-11-25T09:08:50.349Z,3.0
2022-11-25T09:10:51.103Z,3.0
2022-11-25T09:12:50.715Z,3.1
2022-11-25T09:14:50.375Z,3.2
2022-11-25T09:16:50.182Z,3.2
2022-11-25T09:18:56.771Z,3.3
2022-11-25T09:20:50.394Z,3.3
2022-11-25T09:22:50.034Z,3.4
2022-11-25T09:24:50.464Z,3.5
2022-11-25T09:26:50.446Z,3.5
2022-11-25T09:28:50.065Z,3.6
2022-11-25T09:30:50.997Z,3.6
2022-11-25T09:32:50.680Z,3.7
2022-11-25T09:34:50.697Z,3.8
2022-11-25T09:36:50.335Z,3.9
2022-11-25T09:38:50.137Z,4.0
2022-11-25T09:40:50.716Z,4.0
2022-11-25T09:42:50.373Z,4.0
2022-11-25T09:44:49.935Z,4.1
2022-11-25T09:46:50.994Z,4.2
2022-11-25T09:48:50.042Z,4.3
2022-11-25T09:50:50.635Z,4.3
2022-11-25T09:52:50.491Z,4.3
2022-11-25T09:54:50.022Z,4.4
2022-11-25T09:56:50.839Z,4.6
2022-11-25T09:58:50.493Z,4.6
2022-11-25T10:00:50.152Z,4.7
2022-11-25T10:02:51.532Z,4.9
2022-11-25T10:04:50.755Z,4.9
2022-11-25T10:06:56.221Z,5.0
2022-11-25T10:08:50.801Z,5.0
2022-11-25T10:10:50.368Z,5.1
2022-11-25T10:12:50.814Z,5.2
2022-11-25T10:14:50.433Z,5.3
2022-11-25T10:16:52.220Z,5.3
2022-11-25T10:18:50.816Z,5.3
2022-11-25T10:20:50.439Z,5.3
2022-11-25T10:22:50.051Z,5.4
2022-11-25T10:24:50.858Z,5.5
2022-11-25T10:26:50.774Z,5.5
2022-11-25T10:28:50.501Z,5.6
2022-11-25T10:30:50.350Z,5.6
2022-11-25T10:32:50.128Z,5.7
2022-11-25T10:34:50.097Z,5.7
2022-11-25T10:36:49.938Z,5.8
2022-11-25T10:38:50.561Z,5.8
2022-11-25T10:40:50.239Z,5.8
2022-11-25T10:42:49.968Z,5.9
2022-11-25T10:44:50.392Z,6.0
2022-11-25T10:47:15.406Z,6.0
2022-11-25T10:48:50.905Z,6.0
2022-11-25T10:50:50.662Z,6.1
2022-11-25T10:52:50.045Z,6.1
2022-11-25T10:54:50.893Z,6.2
2022-11-25T10:56:50.915Z,6.3
2022-11-25T10:58:50.695Z,6.3
2022-11-25T11:00:50.321Z,6.4
2022-11-25T11:02:50.201Z,6.6
2022-11-25T11:04:50.358Z,6.6
2022-11-25T11:06:50.155Z,6.6
2022-11-25T11:08:50.039Z,6.7
2022-11-25T11:10:57.687Z,6.8
2022-11-25T11:12:50.455Z,6.8
2022-11-25T11:14:50.037Z,6.9
2022-11-25T11:16:50.029Z,7.0
2022-11-25T11:18:50.634Z,7.1
2022-11-25T11:20:50.289Z,7.2
2022-11-25T11:22:50.906Z,7.3
2022-11-25T11:24:50.464Z,7.3
2022-11-25T11:26:50.533Z,7.4
2022-11-25T11:28:50.119Z,7.4
2022-11-25T11:30:49.942Z,7.6
2022-11-25T11:32:50.538Z,7.6
2022-11-25T11:34:50.603Z,7.6
2022-11-25T11:36:50.604Z,7.7
2022-11-25T11:38:50.193Z,7.8
2022-11-25T11:40:50.838Z,8.0
2022-11-25T11:42:50.437Z,8.0
2022-11-25T11:44:50.236Z,8.0
2022-11-25T11:46:50.533Z,8.0
2022-11-25T11:48:53.997Z,8.1
2022-11-25T11:50:50.463Z,8.2
2022-11-25T11:52:50.307Z,8.2
2022-11-25T11:54:50.898Z,8.2
2022-11-25T11:56:56.030Z,8.2
2022-11-25T11:58:50.647Z,8.3
2022-11-25T12:00:50.057Z,8.3
2022-11-25T12:02:51.034Z,8.3
2022-11-25T12:04:50.298Z,8.3
2022-11-25T12:06:50.352Z,8.4
2022-11-25T12:08:49.915Z,8.4
2022-11-25T12:10:50.710Z,8.4
2022-11-25T12:12:50.354Z,8.4
2022-11-25T12:14:50.172Z,8.4
2022-11-25T12:16:50.553Z,8.4
2022-11-25T12:18:50.401Z,8.4
2022-11-25T12:20:49.981Z,8.4
2022-11-25T12:22:50.578Z,8.4
2022-11-25T12:24:50.249Z,8.4
2022-11-25T12:26:50.037Z,8.3
2022-11-25T12:28:50.873Z,8.4
2022-11-25T12:30:50.490Z,8.4
2022-11-25T12:32:50.308Z,8.4
2022-11-25T12:34:50.318Z,8.4
2022-11-25T12:36:50.317Z,8.4
2022-11-25T12:38:49.935Z,8.4
2022-11-25T12:40:50.708Z,8.4
2022-11-25T12:42:50.353Z,8.4
2022-11-25T12:44:50.178Z,8.4
2022-11-25T12:46:50.166Z,8.4
2022-11-25T12:48:50.793Z,8.4
2022-11-25T12:50:50.208Z,8.4
2022-11-25T12:52:50.801Z,8.5
2022-11-25T12:54:50.448Z,8.5
2022-11-25T12:56:50.489Z,8.5
2022-11-25T12:58:50.569Z,8.5
2022-11-25T13:00:50.570Z,8.5
2022-11-25T13:02:50.850Z,8.6
2022-11-25T13:04:50.121Z,8.6
2022-11-25T13:06:50.136Z,8.6
2022-11-25T13:08:50.715Z,8.6
2022-11-25T13:10:50.432Z,8.6
2022-11-25T13:12:51.873Z,8.6
2022-11-25T13:14:52.290Z,8.6
2022-11-25T13:16:53.338Z,8.5
2022-11-25T13:18:50.036Z,8.5
2022-11-25T13:20:50.667Z,8.5
2022-11-25T13:22:50.253Z,8.5
2022-11-25T13:24:50.089Z,8.5
2022-11-25T13:26:50.130Z,8.5
2022-11-25T13:28:50.890Z,8.5
2022-11-25T13:30:50.498Z,8.5
2022-11-25T13:32:50.311Z,8.4
2022-11-25T13:34:50.352Z,8.4
2022-11-25T13:36:50.392Z,8.4
2022-11-25T13:38:50.021Z,8.4
2022-11-25T13:40:50.758Z,8.4
2022-11-25T13:42:50.408Z,8.4
2022-11-25T13:44:50.216Z,8.4
2022-11-25T13:46:50.015Z,8.4
2022-11-25T13:48:50.653Z,8.3
2022-11-25T13:51:11.972Z,8.3
2022-11-25T13:52:50.358Z,8.3
2022-11-25T13:54:50.134Z,8.2
2022-11-25T13:56:50.901Z,8.2
2022-11-25T13:58:50.721Z,8.2
2022-11-25T14:00:50.370Z,8.1
2022-11-25T14:02:51.084Z,8.1
2022-11-25T14:04:50.348Z,8.1
2022-11-25T14:06:50.204Z,8.1
2022-11-25T14:08:50.789Z,8.1
2022-11-25T14:10:50.417Z,8.1
2022-11-25T14:12:50.010Z,8.1
2022-11-25T14:14:50.783Z,8.0
2022-11-25T14:16:51.176Z,8.0
2022-11-25T14:20:50.837Z,8.0
2022-11-25T14:22:50.298Z,8.0
2022-11-25T14:24:50.082Z,8.0
2022-11-25T14:26:51.129Z,8.0
2022-11-25T14:28:49.933Z,8.0
2022-11-25T14:30:54.216Z,7.9
2022-11-25T14:32:49.968Z,7.9
2022-11-25T14:34:50.197Z,7.9
2022-11-25T14:36:50.210Z,7.9
2022-11-25T14:38:50.810Z,7.9
2022-11-25T14:40:55.362Z,7.9
2022-11-25T14:42:50.826Z,7.9
2022-11-25T14:44:50.441Z,7.9
2022-11-25T14:46:50.486Z,7.9
2022-11-25T14:48:50.075Z,7.9
2022-11-25T14:50:50.722Z,7.8
2022-11-25T14:52:50.299Z,7.8
2022-11-25T14:54:50.127Z,7.8
2022-11-25T14:56:50.031Z,7.8
2022-11-25T14:58:50.649Z,7.8
2022-11-25T15:00:50.115Z,7.8
2022-11-25T15:02:50.987Z,7.8
2022-11-25T15:04:50.102Z,7.8
2022-11-25T15:06:50.111Z,7.8
2022-11-25T15:08:50.759Z,7.7
2022-11-25T15:10:50.582Z,7.7
2022-11-25T15:12:54.225Z,7.7
2022-11-25T15:14:50.001Z,7.7
2022-11-25T15:16:50.462Z,7.6
2022-11-25T15:18:50.450Z,7.6
2022-11-25T15:20:49.994Z,7.6
2022-11-25T15:22:50.638Z,7.6
2022-11-25T15:25:00.222Z,7.6
2022-11-25T15:26:50.049Z,7.6
2022-11-25T15:28:50.683Z,7.6
2022-11-25T15:30:50.334Z,7.6
2022-11-25T15:32:50.959Z,7.6
2022-11-25T15:34:50.912Z,7.6
2022-11-25T15:36:55.035Z,7.6
2022-11-25T15:38:49.948Z,7.6
2022-11-25T15:40:50.616Z,7.6
2022-11-25T15:42:50.400Z,7.6
2022-11-25T15:44:49.956Z,7.6
2022-11-25T15:46:50.782Z,7.6
2022-11-25T15:48:50.434Z,7.6
2022-11-25T15:50:50.054Z,7.6
2022-11-25T15:52:50.612Z,7.6
2022-11-25T15:54:50.278Z,7.6
2022-11-25T15:56:50.202Z,7.6
2022-11-25T15:58:50.762Z,7.6
2022-11-25T16:00:50.789Z,7.6
2022-11-25T16:02:50.964Z,7.6
2022-11-25T16:04:50.447Z,7.6
2022-11-25T16:06:50.474Z,7.6
2022-11-25T16:08:50.068Z,7.6
2022-11-25T16:10:50.716Z,7.6
2022-11-25T16:12:50.305Z,7.6
2022-11-25T16:14:50.905Z,7.6
2022-11-25T16:16:50.265Z,7.6
2022-11-25T16:18:49.959Z,7.6
2022-11-25T16:20:50.803Z,7.6
2022-11-25T16:22:50.597Z,7.6
2022-11-25T16:24:50.168Z,7.6
2022-11-25T16:26:50.424Z,7.6
2022-11-25T16:28:50.399Z,7.6
2022-11-25T16:30:59.631Z,7.5
2022-11-25T16:32:50.223Z,7.6
2022-11-25T16:34:50.279Z,7.5
2022-11-25T16:36:50.293Z,7.5
2022-11-25T16:38:50.081Z,7.5
2022-11-25T16:40:50.705Z,7.5
2022-11-25T16:42:50.696Z,7.5
2022-11-25T16:44:50.360Z,7.5
2022-11-25T16:46:50.388Z,7.6
2022-11-25T16:48:49.975Z,7.6
2022-11-25T16:50:50.777Z,7.6
2022-11-25T16:52:50.485Z,7.6
2022-11-25T16:54:50.308Z,7.6
2022-11-25T16:56:50.291Z,7.6
2022-11-25T16:58:50.850Z,7.6
2022-11-25T17:00:50.458Z,7.6
2022-11-25T17:02:50.421Z,7.6
2022-11-25T17:04:50.795Z,7.6
2022-11-25T17:07:33.615Z,7.6
2022-11-25T17:08:50.702Z,7.6
2022-11-25T17:10:50.321Z,7.5
2022-11-25T17:12:50.950Z,7.5
2022-11-25T17:14:51.283Z,7.5
2022-11-25T17:16:50.755Z,7.5
2022-11-25T17:18:50.695Z,7.5
2022-11-25T17:20:50.581Z,7.5
2022-11-25T17:22:50.237Z,7.5
2022-11-25T17:24:50.815Z,7.5
2022-11-25T17:26:50.846Z,7.5
2022-11-25T17:28:50.650Z,7.4
2022-11-25T17:30:50.339Z,7.4
2022-11-25T17:32:50.068Z,7.3
2022-11-25T17:34:50.118Z,7.3
2022-11-25T17:36:50.072Z,7.3
2022-11-25T17:38:50.710Z,7.3
2022-11-25T17:40:50.323Z,7.3
2022-11-25T17:42:50.091Z,7.3
2022-11-25T17:44:54.841Z,7.2
2022-11-25T17:46:50.007Z,7.2
2022-11-25T17:48:50.794Z,7.2
2022-11-25T17:50:50.427Z,7.2
2022-11-25T17:52:50.267Z,7.2
2022-11-25T17:54:50.818Z,7.2
2022-11-25T17:56:53.062Z,7.2
2022-11-25T17:58:50.875Z,7.2
2022-11-25T18:00:50.819Z,7.2
2022-11-25T18:02:51.115Z,7.2
2022-11-25T18:04:50.362Z,7.2
2022-11-25T18:06:50.345Z,7.2
2022-11-25T18:08:49.933Z,7.1
2022-11-25T18:10:50.561Z,7.1
2022-11-25T18:12:50.139Z,7.2
2022-11-25T18:14:50.774Z,7.1
2022-11-25T18:16:51.205Z,7.2
2022-11-25T18:18:50.842Z,7.2
2022-11-25T18:20:50.650Z,7.2
2022-11-25T18:22:50.204Z,7.2
2022-11-25T18:24:50.865Z,7.2
2022-11-25T18:26:50.857Z,7.1
2022-11-25T18:28:50.437Z,7.1
2022-11-25T18:30:50.385Z,7.1
2022-11-25T18:32:50.124Z,7.1
2022-11-25T18:34:50.162Z,7.1
2022-11-25T18:36:50.106Z,7.1
2022-11-25T18:38:50.761Z,7.1
2022-11-25T18:40:54.626Z,7.1
2022-11-25T18:42:50.198Z,7.0
2022-11-25T18:44:50.805Z,7.0
2022-11-25T18:46:50.616Z,7.0
2022-11-25T18:48:50.251Z,7.0
2022-11-25T18:50:50.831Z,6.9
2022-11-25T18:52:50.467Z,6.9
2022-11-25T18:54:50.114Z,6.9
2022-11-25T18:56:50.089Z,6.9
2022-11-25T18:58:50.918Z,6.8
2022-11-25T19:00:50.839Z,6.8
2022-11-25T19:02:51.018Z,6.7
2022-11-25T19:04:50.120Z,6.7
2022-11-25T19:06:50.178Z,6.7
2022-11-25T19:08:50.772Z,6.7
2022-11-25T19:10:50.223Z,6.6
2022-11-25T19:12:50.009Z,6.6
2022-11-25T19:14:50.603Z,6.5
2022-11-25T19:16:51.070Z,6.5
2022-11-25T19:18:50.981Z,6.5
2022-11-25T19:20:50.657Z,6.5
2022-11-25T19:22:50.273Z,6.5
2022-11-25T19:24:50.925Z,6.5
2022-11-25T19:26:50.896Z,6.5
2022-11-25T19:28:50.501Z,6.5
2022-11-25T19:30:49.941Z,6.5
2022-11-25T19:32:50.756Z,6.5
2022-11-25T19:34:50.764Z,6.5
2022-11-25T19:36:50.799Z,6.5
2022-11-25T19:38:50.384Z,6.5
2022-11-25T19:40:49.999Z,6.5
2022-11-25T19:42:50.626Z,6.5
2022-11-25T19:44:50.212Z,6.5
2022-11-25T19:47:16.056Z,6.5
2022-11-25T19:48:50.292Z,6.4
2022-11-25T19:50:50.872Z,6.4
2022-11-25T19:52:50.482Z,6.4
2022-11-25T19:54:50.115Z,6.5
2022-11-25T19:56:50.152Z,6.5
2022-11-25T19:58:50.697Z,6.5
2022-11-25T20:00:50.861Z,6.5
2022-11-25T20:02:50.940Z,6.5
2022-11-25T20:04:50.200Z,6.5
2022-11-25T20:06:50.010Z,6.5
2022-11-25T20:08:50.637Z,6.6
2022-11-25T20:10:50.226Z,6.6
2022-11-25T20:12:50.864Z,6.6
2022-11-25T20:14:50.650Z,6.6
2022-11-25T20:16:51.364Z,6.7
2022-11-25T20:18:50.339Z,6.7
2022-11-25T20:20:50.888Z,6.7
2022-11-25T20:22:50.502Z,6.7
2022-11-25T20:24:50.179Z,6.7
2022-11-25T20:26:50.121Z,6.7
2022-11-25T20:28:49.968Z,6.7
2022-11-25T20:30:50.554Z,6.7
2022-11-25T20:32:50.395Z,6.7
2022-11-25T20:34:50.384Z,6.7
2022-11-25T20:36:50.412Z,6.7
2022-11-25T20:38:50.023Z,6.6
2022-11-25T20:40:50.654Z,6.6
2022-11-25T20:42:50.027Z,6.6
2022-11-25T20:44:58.243Z,6.6
2022-11-25T20:46:50.274Z,6.6
2022-11-25T20:48:50.992Z,6.6
2022-11-25T20:50:49.996Z,6.6
2022-11-25T20:52:50.509Z,6.6
2022-11-25T20:54:50.155Z,6.6
2022-11-25T20:56:50.184Z,6.5
2022-11-25T20:58:50.805Z,6.5
2022-11-25T21:00:58.277Z,6.5
2022-11-25T21:02:50.368Z,6.5
2022-11-25T21:04:50.650Z,6.5
2022-11-25T21:06:50.430Z,6.5
2022-11-25T21:08:50.022Z,6.5
2022-11-25T21:10:50.805Z,6.5
2022-11-25T21:12:50.292Z,6.5
2022-11-25T21:14:50.087Z,6.5
2022-11-25T21:16:51.180Z,6.5
2022-11-25T21:18:50.925Z,6.5
2022-11-25T21:20:50.517Z,6.5
2022-11-25T21:22:50.159Z,6.4
2022-11-25T21:24:49.938Z,6.4
2022-11-25T21:26:50.781Z,6.4
2022-11-25T21:28:50.402Z,6.4
2022-11-25T21:30:49.979Z,6.4
2022-11-25T21:32:50.605Z,6.4
2022-11-25T21:34:50.662Z,6.4
2022-11-25T21:36:50.667Z,6.4
2022-11-25T21:38:50.283Z,6.4
2022-11-25T21:40:50.854Z,6.4
2022-11-25T21:42:50.490Z,6.4
2022-11-25T21:44:50.890Z,6.4
2022-11-25T21:46:50.711Z,6.4
2022-11-25T21:48:50.324Z,6.4
2022-11-25T21:50:49.995Z,6.4
2022-11-25T21:52:50.557Z,6.4
2022-11-25T21:54:50.184Z,6.4
2022-11-25T21:56:50.191Z,6.4
2022-11-25T21:58:50.821Z,6.4
2022-11-25T22:00:50.744Z,6.5
2022-11-25T22:02:50.734Z,6.5
2022-11-25T22:04:50.038Z,6.5
2022-11-25T22:06:50.849Z,6.5
2022-11-25T22:08:50.501Z,6.5
2022-11-25T22:10:50.295Z,6.5
2022-11-25T22:12:50.897Z,6.5
2022-11-25T22:14:50.719Z,6.6
2022-11-25T22:16:51.045Z,6.6
2022-11-25T22:18:50.738Z,6.5
2022-11-25T22:20:54.076Z,6.6
2022-11-25T22:22:50.546Z,6.5
2022-11-25T22:24:50.393Z,6.5
2022-11-25T22:26:58.676Z,6.5
2022-11-25T22:28:50.450Z,6.5
2022-11-25T22:30:50.076Z,6.6
2022-11-25T22:32:50.398Z,6.6
2022-11-25T22:34:50.483Z,6.6
2022-11-25T22:36:50.261Z,6.6
2022-11-25T22:38:50.901Z,6.6
2022-11-25T22:40:50.485Z,6.6
2022-11-25T22:42:49.914Z,6.6
2022-11-25T22:44:50.532Z,6.6
2022-11-25T22:46:50.338Z,6.6
2022-11-25T22:48:50.005Z,6.6
2022-11-25T22:50:50.667Z,6.7
2022-11-25T22:52:50.214Z,6.7
2022-11-25T22:54:50.820Z,6.7
2022-11-25T22:56:50.637Z,6.7
2022-11-25T22:58:50.244Z,6.7
2022-11-25T23:00:51.085Z,6.7
2022-11-25T23:02:50.073Z,6.7
2022-11-25T23:04:50.287Z,6.7
2022-11-25T23:06:50.304Z,6.8
2022-11-25T23:08:50.904Z,6.8
2022-11-25T23:10:50.737Z,6.8
2022-11-25T23:12:50.318Z,6.8
2022-11-25T23:14:49.948Z,6.8
2022-11-25T23:16:50.358Z,6.8
2022-11-25T23:18:49.972Z,6.9
2022-11-25T23:20:50.631Z,6.8
2022-11-25T23:22:50.316Z,6.8
2022-11-25T23:24:50.046Z,6.8
2022-11-25T23:26:50.043Z,6.8
2022-11-25T23:28:50.632Z,6.8
2022-11-25T23:30:50.299Z,6.8
2022-11-25T23:32:50.917Z,6.8
2022-11-25T23:34:49.997Z,6.8
2022-11-25T23:36:50.880Z,6.8
2022-11-25T23:38:50.671Z,6.9
2022-11-25T23:40:50.128Z,6.9
2022-11-25T23:42:49.953Z,6.9
2022-11-25T23:44:50.355Z,6.9
2022-11-25T23:46:50.187Z,6.9
2022-11-25T23:48:50.858Z,6.9
2022-11-25T23:50:50.385Z,6.9
2022-11-25T23:52:50.061Z,6.9
2022-11-25T23:54:50.650Z,6.9
2022-11-25T23:56:50.694Z,6.9
2022-11-25T23:58:50.313Z,6.9
